createdAt,value
2023-04-30T00:02:12.474Z,55.26
2023-04-30T00:04:38.989Z,55.25
2023-04-30T00:07:05.490Z,55.16
2023-04-30T00:09:32.013Z,55.15
2023-04-30T00:11:58.530Z,55.11
2023-04-30T00:14:25.169Z,55.33
2023-04-30T00:16:51.726Z,55.27
2023-04-30T00:19:18.319Z,55.27
2023-04-30T00:21:44.813Z,55.32
2023-04-30T00:24:11.321Z,55.33
2023-04-30T00:26:37.891Z,55.37
2023-04-30T00:29:07.523Z,55.37
2023-04-30T00:31:34.025Z,55.36
2023-04-30T00:34:00.699Z,55.51
2023-04-30T00:36:27.247Z,55.53
2023-04-30T00:38:53.855Z,55.74
2023-04-30T00:41:21.953Z,55.89
2023-04-30T00:43:48.455Z,55.79
2023-04-30T00:46:15.088Z,55.81
2023-04-30T00:48:41.759Z,55.99
2023-04-30T00:51:08.569Z,56.08
2023-04-30T00:53:36.103Z,56.11
2023-04-30T00:56:02.759Z,56.23
2023-04-30T00:58:29.908Z,56.41
2023-04-30T01:00:56.821Z,56.53
2023-04-30T01:03:23.603Z,56.46
2023-04-30T01:05:50.491Z,56.78
2023-04-30T01:08:17.328Z,56.72
2023-04-30T01:11:17.269Z,57.63
2023-04-30T01:13:55.604Z,57.40
2023-04-30T01:16:30.332Z,57.16
2023-04-30T01:19:00.893Z,57.24
2023-04-30T01:21:30.932Z,57.21
2023-04-30T01:24:34.498Z,57.78
2023-04-30T01:27:31.777Z,57.66
2023-04-30T01:29:59.381Z,56.64
2023-04-30T01:32:25.879Z,56.71
2023-04-30T01:34:52.382Z,56.71
2023-04-30T01:37:33.781Z,57.87
2023-04-30T01:40:20.767Z,57.80
2023-04-30T01:42:50.511Z,57.34
2023-04-30T01:45:35.131Z,57.59
2023-04-30T01:48:23.655Z,57.54
2023-04-30T01:50:50.246Z,56.81
2023-04-30T01:53:33.135Z,57.65
2023-04-30T01:58:26.666Z,56.71
2023-04-30T02:00:53.508Z,56.96
2023-04-30T02:03:20.066Z,57.10
2023-04-30T02:05:47.417Z,57.00
2023-04-30T02:08:13.845Z,57.22
2023-04-30T02:10:40.302Z,57.16
2023-04-30T02:13:06.695Z,57.52
2023-04-30T02:15:33.170Z,57.43
2023-04-30T02:17:59.711Z,57.36
2023-04-30T02:20:26.228Z,57.54
2023-04-30T02:22:52.802Z,57.47
2023-04-30T02:25:19.221Z,57.38
2023-04-30T02:27:45.620Z,57.34
2023-04-30T02:30:12.014Z,57.51
2023-04-30T02:32:38.562Z,57.32
2023-04-30T02:35:05.661Z,57.57
2023-04-30T02:37:32.003Z,57.40
2023-04-30T02:39:58.481Z,57.45
2023-04-30T02:42:24.924Z,57.11
2023-04-30T02:44:51.466Z,57.24
2023-04-30T02:47:17.894Z,57.46
2023-04-30T02:49:44.412Z,57.62
2023-04-30T02:52:10.854Z,57.38
2023-04-30T02:54:37.268Z,57.35
2023-04-30T02:57:03.818Z,57.11
2023-04-30T02:59:30.314Z,57.13
2023-04-30T03:01:56.673Z,57.15
2023-04-30T03:04:23.045Z,57.43
2023-04-30T03:06:49.438Z,57.21
2023-04-30T03:09:15.897Z,57.20
2023-04-30T03:11:42.364Z,57.30
2023-04-30T03:14:08.891Z,57.75
2023-04-30T03:16:35.317Z,58.01
2023-04-30T03:19:01.838Z,57.84
2023-04-30T03:21:28.425Z,57.78
2023-04-30T03:23:54.892Z,57.94
2023-04-30T03:26:22.001Z,58.46
2023-04-30T03:28:48.417Z,58.11
2023-04-30T03:31:15.233Z,58.18
2023-04-30T03:33:41.762Z,58.26
2023-04-30T03:36:08.186Z,58.19
2023-04-30T03:38:34.552Z,58.41
2023-04-30T03:41:00.954Z,58.66
2023-04-30T03:43:27.295Z,58.28
2023-04-30T03:45:53.765Z,58.54
2023-04-30T03:48:21.315Z,58.54
2023-04-30T03:50:47.905Z,58.52
2023-04-30T03:53:14.306Z,58.51
2023-04-30T03:55:41.385Z,58.72
2023-04-30T03:58:08.233Z,58.60
2023-04-30T04:00:34.827Z,58.49
2023-04-30T04:03:01.407Z,58.60
2023-04-30T04:05:27.932Z,58.51
2023-04-30T04:07:54.362Z,58.46
2023-04-30T04:10:21.059Z,58.34
2023-04-30T04:12:48.752Z,58.63
2023-04-30T04:15:15.263Z,58.72
2023-04-30T04:17:41.671Z,58.46
2023-04-30T04:20:08.762Z,58.59
2023-04-30T04:22:35.358Z,58.86
2023-04-30T04:25:01.889Z,58.74
2023-04-30T04:27:28.459Z,59.13
2023-04-30T04:29:55.127Z,58.83
2023-04-30T04:32:22.701Z,58.82
2023-04-30T04:34:49.588Z,58.91
2023-04-30T04:37:17.402Z,58.76
2023-04-30T04:39:45.059Z,58.86
2023-04-30T04:42:12.030Z,59.06
2023-04-30T04:44:38.471Z,58.83
2023-04-30T04:47:05.165Z,59.02
2023-04-30T04:49:31.569Z,59.17
2023-04-30T04:51:57.938Z,58.92
2023-04-30T04:54:24.452Z,58.85
2023-04-30T04:56:51.616Z,58.97
2023-04-30T04:59:18.800Z,59.29
2023-04-30T05:01:45.229Z,59.30
2023-04-30T05:04:13.801Z,59.19
2023-04-30T05:06:41.386Z,59.27
2023-04-30T05:09:09.355Z,59.44
2023-04-30T05:11:36.317Z,59.53
2023-04-30T05:14:02.953Z,59.57
2023-04-30T05:16:30.010Z,59.58
2023-04-30T05:18:56.434Z,59.95
2023-04-30T05:21:23.090Z,60.00
2023-04-30T05:23:49.547Z,60.11
2023-04-30T05:26:16.671Z,60.27
2023-04-30T05:28:43.142Z,60.19
2023-04-30T05:31:09.708Z,60.26
2023-04-30T05:33:37.136Z,60.26
2023-04-30T05:36:03.963Z,60.20
2023-04-30T05:38:30.483Z,60.26
2023-04-30T05:40:56.821Z,60.12
2023-04-30T05:43:23.251Z,60.45
2023-04-30T05:45:49.686Z,60.50
2023-04-30T05:48:16.217Z,60.72
2023-04-30T05:50:43.488Z,60.35
2023-04-30T05:53:09.855Z,60.59
2023-04-30T05:55:36.349Z,60.54
2023-04-30T05:58:02.823Z,60.46
2023-04-30T06:00:29.349Z,60.55
2023-04-30T06:02:55.990Z,60.60
2023-04-30T06:05:22.515Z,60.56
2023-04-30T06:07:48.935Z,60.37
2023-04-30T06:10:15.611Z,60.53
2023-04-30T06:12:42.149Z,60.34
2023-04-30T06:15:08.922Z,60.50
2023-04-30T06:17:35.616Z,60.23
2023-04-30T06:20:06.761Z,60.16
2023-04-30T06:22:34.321Z,60.37
2023-04-30T06:25:00.929Z,60.24
2023-04-30T06:27:32.159Z,60.07
2023-04-30T06:30:00.701Z,60.12
2023-04-30T06:32:27.404Z,60.28
2023-04-30T06:34:53.809Z,60.38
2023-04-30T06:37:20.274Z,60.18
2023-04-30T06:39:46.791Z,60.17
2023-04-30T06:42:13.222Z,60.18
2023-04-30T06:44:39.735Z,60.00
2023-04-30T06:47:06.155Z,59.80
2023-04-30T06:49:32.485Z,59.58
2023-04-30T06:51:58.969Z,59.83
2023-04-30T06:54:26.676Z,59.90
2023-04-30T06:57:01.099Z,60.24
2023-04-30T06:59:29.097Z,59.85
2023-04-30T07:01:55.693Z,59.71
2023-04-30T07:04:24.452Z,59.60
2023-04-30T07:06:51.347Z,59.77
2023-04-30T07:09:17.792Z,59.72
2023-04-30T07:11:45.126Z,59.67
2023-04-30T07:14:11.534Z,59.38
2023-04-30T07:16:37.890Z,59.35
2023-04-30T07:19:10.342Z,59.67
2023-04-30T07:21:36.727Z,59.18
2023-04-30T07:24:03.163Z,59.33
2023-04-30T07:26:29.599Z,59.16
2023-04-30T07:28:56.000Z,58.80
2023-04-30T07:31:22.551Z,58.75
2023-04-30T07:33:50.499Z,58.71
2023-04-30T07:36:16.904Z,58.37
2023-04-30T07:38:43.615Z,58.36
2023-04-30T07:41:11.096Z,58.14
2023-04-30T07:43:37.466Z,58.19
2023-04-30T07:46:04.023Z,58.33
2023-04-30T07:48:30.920Z,58.06
2023-04-30T07:50:57.466Z,57.87
2023-04-30T07:53:24.209Z,57.73
2023-04-30T07:58:22.826Z,57.60
2023-04-30T08:00:49.386Z,57.66
2023-04-30T08:03:16.071Z,57.45
2023-04-30T08:05:42.642Z,57.85
2023-04-30T08:08:09.159Z,57.72
2023-04-30T08:10:37.266Z,57.55
2023-04-30T08:13:05.386Z,57.59
2023-04-30T08:15:34.212Z,57.45
2023-04-30T08:18:00.782Z,57.07
2023-04-30T08:20:27.299Z,56.55
2023-04-30T08:22:53.854Z,56.39
2023-04-30T08:25:20.677Z,56.79
2023-04-30T08:27:47.302Z,56.63
2023-04-30T08:30:13.930Z,56.81
2023-04-30T08:32:40.531Z,56.73
2023-04-30T08:35:08.059Z,56.59
2023-04-30T08:37:34.737Z,56.80
2023-04-30T08:40:01.305Z,56.74
2023-04-30T08:42:37.003Z,55.91
2023-04-30T08:45:04.413Z,56.25
2023-04-30T08:47:31.111Z,56.32
2023-04-30T08:49:57.829Z,55.83
2023-04-30T08:52:26.862Z,55.58
2023-04-30T08:54:54.902Z,55.67
2023-04-30T08:57:21.500Z,55.50
2023-04-30T08:59:51.024Z,55.29
2023-04-30T09:02:17.625Z,55.01
2023-04-30T09:04:44.946Z,54.96
2023-04-30T09:07:14.474Z,54.06
2023-04-30T09:09:41.147Z,54.12
2023-04-30T09:12:18.605Z,53.93
2023-04-30T09:15:05.650Z,53.36
2023-04-30T09:17:34.335Z,53.93
2023-04-30T09:20:11.892Z,53.09
2023-04-30T09:22:40.017Z,53.93
2023-04-30T09:25:08.223Z,53.59
2023-04-30T09:27:35.041Z,53.33
2023-04-30T09:30:01.764Z,53.47
2023-04-30T09:32:28.458Z,53.15
2023-04-30T09:34:55.767Z,53.24
2023-04-30T09:37:22.187Z,53.19
2023-04-30T09:39:54.191Z,52.22
2023-04-30T09:42:21.211Z,52.69
2023-04-30T09:44:48.974Z,52.47
2023-04-30T09:47:18.062Z,51.83
2023-04-30T09:49:47.975Z,51.50
2023-04-30T09:52:15.940Z,51.75
2023-04-30T09:54:44.585Z,51.43
2023-04-30T09:57:13.428Z,51.84
2023-04-30T09:59:44.098Z,51.59
2023-04-30T10:02:13.301Z,52.55
2023-04-30T10:04:43.344Z,51.46
2023-04-30T10:07:17.552Z,51.18
2023-04-30T10:09:51.436Z,50.61
2023-04-30T10:12:24.332Z,51.00
2023-04-30T10:15:04.545Z,51.76
2023-04-30T10:17:33.408Z,51.12
2023-04-30T10:20:05.709Z,49.83
2023-04-30T10:22:34.845Z,50.27
2023-04-30T10:25:02.478Z,50.28
2023-04-30T10:27:33.274Z,50.80
2023-04-30T10:30:00.334Z,50.77
2023-04-30T10:32:53.036Z,49.38
2023-04-30T10:35:24.427Z,50.09
2023-04-30T10:37:55.073Z,49.92
2023-04-30T10:40:21.795Z,50.51
2023-04-30T10:42:49.936Z,49.63
2023-04-30T10:45:17.368Z,49.34
2023-04-30T10:47:47.287Z,49.62
2023-04-30T10:50:14.345Z,50.58
2023-04-30T10:52:40.906Z,50.27
2023-04-30T10:55:09.946Z,50.33
2023-04-30T10:57:43.793Z,49.26
2023-04-30T11:00:10.501Z,50.74
2023-04-30T11:02:43.681Z,48.29
2023-04-30T11:05:14.428Z,47.14
2023-04-30T11:07:52.140Z,46.04
2023-04-30T11:10:27.435Z,45.85
2023-04-30T11:12:55.826Z,45.54
2023-04-30T11:15:26.623Z,43.87
2023-04-30T11:17:58.531Z,42.74
2023-04-30T11:20:26.522Z,42.96
2023-04-30T11:23:25.204Z,42.01
2023-04-30T11:26:01.203Z,40.68
2023-04-30T11:28:28.626Z,40.20
2023-04-30T11:30:59.656Z,40.32
2023-04-30T11:33:28.051Z,39.38
2023-04-30T11:35:56.375Z,38.93
2023-04-30T11:38:36.644Z,38.11
2023-04-30T11:41:04.340Z,37.45
2023-04-30T11:43:32.474Z,37.24
2023-04-30T11:46:06.043Z,36.30
2023-04-30T11:48:44.153Z,35.72
2023-04-30T11:51:20.517Z,35.04
2023-04-30T11:53:48.926Z,36.04
2023-04-30T11:56:21.330Z,33.83
2023-04-30T11:58:49.417Z,35.65
2023-04-30T12:01:17.418Z,34.52
2023-04-30T12:03:45.897Z,34.21
2023-04-30T12:06:26.309Z,32.67
2023-04-30T12:09:07.182Z,32.83
2023-04-30T12:11:35.138Z,34.24
2023-04-30T12:14:05.419Z,33.92
2023-04-30T12:16:51.251Z,33.21
2023-04-30T12:19:19.488Z,33.20
2023-04-30T12:21:47.490Z,32.27
2023-04-30T12:24:19.152Z,30.89
2023-04-30T12:26:46.591Z,31.68
2023-04-30T12:29:15.873Z,30.80
2023-04-30T12:31:43.221Z,30.65
2023-04-30T12:34:14.446Z,29.45
2023-04-30T12:36:44.712Z,30.40
2023-04-30T12:39:15.891Z,29.28
2023-04-30T12:41:47.610Z,28.95
2023-04-30T12:44:21.192Z,28.94
2023-04-30T12:46:49.579Z,29.18
2023-04-30T12:49:26.615Z,28.70
2023-04-30T12:51:59.902Z,28.56
2023-04-30T12:54:30.851Z,28.03
2023-04-30T12:57:09.106Z,28.50
2023-04-30T12:59:39.001Z,28.22
2023-04-30T13:02:08.054Z,28.18
2023-04-30T13:04:36.192Z,27.99
2023-04-30T13:07:03.544Z,27.81
2023-04-30T13:09:31.408Z,27.47
2023-04-30T13:11:57.894Z,27.30
2023-04-30T13:14:24.544Z,26.85
2023-04-30T13:16:51.040Z,26.65
2023-04-30T13:19:17.716Z,26.60
2023-04-30T13:21:44.300Z,26.66
2023-04-30T13:24:10.876Z,26.61
2023-04-30T13:26:37.577Z,26.68
2023-04-30T13:29:04.317Z,25.50
2023-04-30T13:31:31.714Z,25.83
2023-04-30T13:33:58.295Z,25.94
2023-04-30T13:36:25.095Z,25.71
2023-04-30T13:38:51.655Z,25.97
2023-04-30T13:41:18.181Z,25.61
2023-04-30T13:43:46.322Z,25.57
2023-04-30T13:46:12.977Z,24.79
2023-04-30T13:48:39.473Z,24.77
2023-04-30T13:51:06.162Z,24.66
2023-04-30T13:53:32.708Z,24.80
2023-04-30T13:55:59.448Z,24.32
2023-04-30T13:58:26.276Z,24.17
2023-04-30T14:00:52.667Z,24.53
2023-04-30T14:03:19.250Z,24.65
2023-04-30T14:05:46.508Z,23.98
2023-04-30T14:08:12.893Z,24.48
2023-04-30T14:10:39.214Z,24.04
2023-04-30T14:13:05.523Z,23.96
2023-04-30T14:15:32.485Z,23.54
2023-04-30T14:18:00.427Z,23.83
2023-04-30T14:20:27.409Z,23.91
2023-04-30T14:22:53.728Z,23.82
2023-04-30T14:25:20.429Z,23.25
2023-04-30T14:27:47.329Z,23.16
2023-04-30T14:30:13.759Z,23.23
2023-04-30T14:32:40.155Z,23.05
2023-04-30T14:35:07.194Z,22.77
2023-04-30T14:37:33.595Z,22.10
2023-04-30T14:40:01.787Z,22.05
2023-04-30T14:42:28.328Z,21.95
2023-04-30T14:44:54.664Z,22.17
2023-04-30T14:47:22.403Z,22.08
2023-04-30T14:49:51.901Z,22.25
2023-04-30T14:52:18.419Z,22.58
2023-04-30T14:54:45.124Z,22.10
2023-04-30T14:57:11.539Z,21.94
2023-04-30T14:59:39.933Z,21.65
2023-04-30T15:02:07.247Z,21.95
2023-04-30T15:04:35.274Z,21.81
2023-04-30T15:07:02.666Z,21.85
2023-04-30T15:09:29.221Z,21.57
2023-04-30T15:11:55.934Z,21.02
2023-04-30T15:14:22.232Z,20.85
2023-04-30T15:16:48.695Z,20.59
2023-04-30T15:19:15.118Z,20.85
2023-04-30T15:21:41.441Z,21.38
2023-04-30T15:24:08.811Z,21.49
2023-04-30T15:26:35.241Z,21.37
2023-04-30T15:29:01.650Z,20.73
2023-04-30T15:31:28.075Z,21.12
2023-04-30T15:33:54.433Z,20.61
2023-04-30T15:36:23.133Z,21.07
2023-04-30T15:38:49.459Z,20.75
2023-04-30T15:41:15.753Z,20.65
2023-04-30T15:43:42.394Z,21.47
2023-04-30T15:46:08.781Z,21.12
2023-04-30T15:48:35.202Z,20.88
2023-04-30T15:51:01.591Z,20.49
2023-04-30T15:53:27.941Z,20.30
2023-04-30T15:55:54.672Z,20.65
2023-04-30T15:58:21.179Z,20.20
2023-04-30T16:00:47.623Z,20.74
2023-04-30T16:03:14.032Z,20.72
2023-04-30T16:05:40.951Z,20.88
2023-04-30T16:08:08.860Z,21.12
2023-04-30T16:10:35.899Z,20.90
2023-04-30T16:13:02.718Z,21.51
2023-04-30T16:15:30.074Z,21.63
2023-04-30T16:17:56.987Z,21.50
2023-04-30T16:20:24.253Z,21.44
2023-04-30T16:22:50.823Z,21.80
2023-04-30T16:25:17.163Z,21.89
2023-04-30T16:27:44.195Z,21.76
2023-04-30T16:30:11.077Z,21.89
2023-04-30T16:32:37.612Z,22.14
2023-04-30T16:35:07.418Z,21.77
2023-04-30T16:37:33.754Z,21.84
2023-04-30T16:40:01.415Z,22.22
2023-04-30T16:42:27.896Z,22.93
2023-04-30T16:44:54.675Z,23.07
2023-04-30T16:47:21.024Z,23.19
2023-04-30T16:49:47.407Z,23.87
2023-04-30T16:52:14.493Z,24.17
2023-04-30T16:54:40.815Z,24.66
2023-04-30T16:57:07.123Z,24.93
2023-04-30T16:59:33.423Z,25.32
2023-04-30T17:02:01.790Z,25.71
2023-04-30T17:04:28.170Z,26.03
2023-04-30T17:06:54.997Z,26.16
2023-04-30T17:09:21.353Z,26.52
2023-04-30T17:11:47.706Z,26.84
2023-04-30T17:14:14.141Z,27.49
2023-04-30T17:16:40.556Z,27.23
2023-04-30T17:19:07.750Z,27.91
2023-04-30T17:21:34.168Z,27.78
2023-04-30T17:24:00.480Z,28.66
2023-04-30T17:26:26.819Z,28.75
2023-04-30T17:28:53.130Z,28.99
2023-04-30T17:31:19.617Z,29.35
2023-04-30T17:33:46.267Z,29.58
2023-04-30T17:36:13.022Z,30.19
2023-04-30T17:38:39.329Z,30.21
2023-04-30T17:41:05.698Z,30.34
2023-04-30T17:43:32.101Z,30.57
2023-04-30T17:45:58.566Z,30.90
2023-04-30T17:48:24.985Z,31.14
2023-04-30T17:50:51.356Z,30.75
2023-04-30T17:53:17.662Z,30.94
2023-04-30T17:55:44.012Z,31.10
2023-04-30T17:58:11.421Z,31.29
2023-04-30T18:00:40.392Z,31.58
2023-04-30T18:03:07.014Z,31.87
2023-04-30T18:05:35.625Z,31.82
2023-04-30T18:08:02.271Z,31.79
2023-04-30T18:10:28.677Z,31.61
2023-04-30T18:12:57.989Z,32.45
2023-04-30T18:15:24.348Z,32.23
2023-04-30T18:17:50.968Z,32.31
2023-04-30T18:20:17.317Z,33.14
2023-04-30T18:22:43.853Z,33.21
2023-04-30T18:25:12.922Z,33.25
2023-04-30T18:27:40.962Z,33.47
2023-04-30T18:30:08.885Z,33.42
2023-04-30T18:32:36.612Z,33.06
2023-04-30T18:35:04.420Z,33.39
2023-04-30T18:37:31.768Z,33.43
2023-04-30T18:39:58.467Z,33.96
2023-04-30T18:42:24.850Z,33.96
2023-04-30T18:44:51.321Z,34.11
2023-04-30T18:47:17.761Z,34.63
2023-04-30T18:49:44.074Z,34.64
2023-04-30T18:52:10.410Z,34.20
2023-04-30T18:54:36.857Z,34.77
2023-04-30T18:57:05.757Z,34.98
2023-04-30T18:59:32.217Z,34.60
2023-04-30T19:01:58.631Z,34.89
2023-04-30T19:04:25.142Z,35.18
2023-04-30T19:06:52.691Z,35.37
2023-04-30T19:09:19.028Z,35.77
2023-04-30T19:11:45.349Z,35.79
2023-04-30T19:14:11.800Z,35.71
2023-04-30T19:16:38.157Z,35.63
2023-04-30T19:19:04.680Z,36.01
2023-04-30T19:21:32.441Z,36.29
2023-04-30T19:23:58.806Z,36.14
2023-04-30T19:26:25.793Z,36.40
2023-04-30T19:28:52.235Z,36.75
2023-04-30T19:31:18.709Z,36.69
2023-04-30T19:33:45.278Z,36.58
2023-04-30T19:36:11.669Z,36.83
2023-04-30T19:38:38.074Z,36.88
2023-04-30T19:41:04.583Z,37.12
2023-04-30T19:43:31.442Z,37.60
2023-04-30T19:45:58.894Z,37.53
2023-04-30T19:48:25.941Z,37.86
2023-04-30T19:50:53.615Z,38.07
2023-04-30T19:53:21.571Z,38.24
2023-04-30T19:55:48.075Z,38.27
2023-04-30T20:01:08.450Z,38.03
2023-04-30T20:03:35.705Z,38.31
2023-04-30T20:06:05.906Z,38.54
2023-04-30T20:08:32.532Z,38.50
2023-04-30T20:11:00.764Z,38.68
2023-04-30T20:13:27.978Z,38.65
2023-04-30T20:15:54.570Z,38.79
2023-04-30T20:18:21.243Z,38.71
2023-04-30T20:20:48.589Z,38.82
2023-04-30T20:23:16.907Z,38.85
2023-04-30T20:25:45.394Z,38.85
2023-04-30T20:28:13.190Z,38.94
2023-04-30T20:30:42.833Z,39.28
2023-04-30T20:33:13.890Z,39.82
2023-04-30T20:35:46.142Z,39.30
2023-04-30T20:38:13.064Z,39.35
2023-04-30T20:40:42.406Z,39.37
2023-04-30T20:43:11.673Z,39.85
2023-04-30T20:45:38.312Z,39.86
2023-04-30T20:48:05.730Z,39.81
2023-04-30T20:50:32.323Z,39.83
2023-04-30T20:52:58.843Z,40.20
2023-04-30T20:55:25.353Z,40.18
2023-04-30T20:57:51.791Z,40.15
2023-04-30T21:00:18.653Z,40.36
2023-04-30T21:02:45.503Z,40.40
2023-04-30T21:05:12.174Z,40.35
2023-04-30T21:07:38.910Z,40.60
2023-04-30T21:10:06.414Z,40.84
2023-04-30T21:12:33.330Z,40.88
2023-04-30T21:15:00.735Z,40.84
2023-04-30T21:17:28.271Z,40.84
2023-04-30T21:19:56.621Z,40.99
2023-04-30T21:22:23.984Z,41.22
2023-04-30T21:24:55.288Z,41.62
2023-04-30T21:27:22.187Z,41.38
2023-04-30T21:29:48.791Z,41.47
2023-04-30T21:32:15.372Z,41.60
2023-04-30T21:34:41.877Z,41.79
2023-04-30T21:37:08.388Z,41.78
2023-04-30T21:39:34.933Z,41.82
2023-04-30T21:42:01.498Z,42.00
2023-04-30T21:44:32.337Z,42.45
2023-04-30T21:46:59.656Z,42.08
2023-04-30T21:49:26.482Z,42.25
2023-04-30T21:51:53.119Z,42.03
2023-04-30T21:54:19.739Z,42.34
2023-04-30T21:56:46.324Z,42.38
2023-04-30T21:59:12.746Z,42.44
2023-04-30T22:01:39.299Z,42.32
2023-04-30T22:04:06.026Z,42.47
2023-04-30T22:06:34.998Z,42.60
2023-04-30T22:09:01.794Z,42.45
2023-04-30T22:11:28.829Z,42.74
2023-04-30T22:13:55.268Z,42.59
2023-04-30T22:16:21.826Z,42.75
2023-04-30T22:18:48.530Z,42.69
2023-04-30T22:21:15.169Z,43.10
2023-04-30T22:23:41.825Z,43.09
2023-04-30T22:26:09.938Z,43.05
2023-04-30T22:28:37.818Z,43.51
2023-04-30T22:31:04.612Z,43.63
2023-04-30T22:33:36.047Z,44.30
2023-04-30T22:36:05.212Z,43.85
2023-04-30T22:38:32.074Z,43.71
2023-04-30T22:41:00.371Z,43.38
2023-04-30T22:43:30.685Z,43.49
2023-04-30T22:45:59.185Z,43.24
2023-04-30T22:48:27.705Z,43.29
2023-04-30T22:50:54.636Z,43.53
2023-04-30T22:53:21.884Z,43.43
2023-04-30T22:55:48.694Z,43.65
2023-04-30T22:58:15.920Z,43.61
2023-04-30T23:00:42.590Z,43.53
2023-04-30T23:03:09.320Z,43.85
2023-04-30T23:05:36.097Z,43.70
2023-04-30T23:08:03.072Z,44.02
2023-04-30T23:10:29.741Z,44.22
2023-04-30T23:12:58.623Z,43.99
2023-04-30T23:15:26.093Z,44.15
2023-04-30T23:17:54.429Z,44.18
2023-04-30T23:20:22.627Z,44.17
2023-04-30T23:22:49.501Z,44.34
2023-04-30T23:25:16.875Z,44.14
2023-04-30T23:27:44.873Z,44.13
2023-04-30T23:30:11.739Z,44.03
2023-04-30T23:32:38.351Z,44.10
2023-04-30T23:35:06.853Z,44.39
2023-04-30T23:37:33.390Z,44.21
2023-04-30T23:40:00.877Z,44.28
2023-04-30T23:42:27.334Z,44.06
2023-04-30T23:44:53.921Z,44.40
2023-04-30T23:47:20.881Z,44.20
2023-04-30T23:49:47.326Z,44.05
2023-04-30T23:52:14.522Z,43.98
2023-04-30T23:54:42.326Z,44.20
2023-04-30T23:57:09.094Z,44.10
2023-04-30T23:59:35.719Z,44.43
